sensor_id;sensor_type;location;lat;lon;timestamp;P1;durP1;ratioP1;P2;durP2;ratioP2
11082;SDS011;5595;50.186;8.468;2022-10-16T00:01:56;0.10;;;0.10;;
11082;SDS011;5595;50.186;8.468;2022-10-16T00:04:22;0.22;;;0.13;;
11082;SDS011;5595;50.186;8.468;2022-10-16T00:06:49;0.08;;;0.08;;
11082;SDS011;5595;50.186;8.468;2022-10-16T00:09:16;0.13;;;0.10;;
11082;SDS011;5595;50.186;8.468;2022-10-16T00:11:43;0.20;;;0.20;;
11082;SDS011;5595;50.186;8.468;2022-10-16T00:14:12;0.15;;;0.15;;
11082;SDS011;5595;50.186;8.468;2022-10-16T00:16:41;0.20;;;0.20;;
11082;SDS011;5595;50.186;8.468;2022-10-16T00:19:08;0.20;;;0.20;;
11082;SDS011;5595;50.186;8.468;2022-10-16T00:21:36;0.20;;;0.20;;
11082;SDS011;5595;50.186;8.468;2022-10-16T00:24:04;0.20;;;0.20;;
11082;SDS011;5595;50.186;8.468;2022-10-16T00:26:33;0.45;;;0.30;;
11082;SDS011;5595;50.186;8.468;2022-10-16T00:29:01;0.20;;;0.20;;
11082;SDS011;5595;50.186;8.468;2022-10-16T00:31:28;0.20;;;0.20;;
11082;SDS011;5595;50.186;8.468;2022-10-16T00:33:57;0.15;;;0.15;;
11082;SDS011;5595;50.186;8.468;2022-10-16T00:36:25;0.30;;;0.30;;
11082;SDS011;5595;50.186;8.468;2022-10-16T00:38:53;0.17;;;0.17;;
11082;SDS011;5595;50.186;8.468;2022-10-16T00:41:21;0.20;;;0.20;;
11082;SDS011;5595;50.186;8.468;2022-10-16T00:43:50;0.28;;;0.28;;
11082;SDS011;5595;50.186;8.468;2022-10-16T00:46:19;0.57;;;0.22;;
11082;SDS011;5595;50.186;8.468;2022-10-16T00:48:48;0.32;;;0.32;;
11082;SDS011;5595;50.186;8.468;2022-10-16T00:51:21;0.20;;;0.20;;
11082;SDS011;5595;50.186;8.468;2022-10-16T00:53:51;0.25;;;0.25;;
11082;SDS011;5595;50.186;8.468;2022-10-16T00:56:18;0.40;;;0.40;;
11082;SDS011;5595;50.186;8.468;2022-10-16T00:58:45;0.35;;;0.35;;
11082;SDS011;5595;50.186;8.468;2022-10-16T01:01:13;0.40;;;0.38;;
11082;SDS011;5595;50.186;8.468;2022-10-16T01:03:40;0.50;;;0.50;;
11082;SDS011;5595;50.186;8.468;2022-10-16T01:06:14;1.23;;;0.70;;
11082;SDS011;5595;50.186;8.468;2022-10-16T01:08:52;0.40;;;0.30;;
11082;SDS011;5595;50.186;8.468;2022-10-16T01:11:32;0.40;;;0.40;;
11082;SDS011;5595;50.186;8.468;2022-10-16T01:14:06;0.43;;;0.43;;
11082;SDS011;5595;50.186;8.468;2022-10-16T01:16:40;0.65;;;0.50;;
11082;SDS011;5595;50.186;8.468;2022-10-16T01:19:14;0.38;;;0.38;;
11082;SDS011;5595;50.186;8.468;2022-10-16T01:21:47;0.47;;;0.47;;
11082;SDS011;5595;50.186;8.468;2022-10-16T01:24:22;0.35;;;0.35;;
11082;SDS011;5595;50.186;8.468;2022-10-16T01:27:03;0.38;;;0.38;;
11082;SDS011;5595;50.186;8.468;2022-10-16T01:29:34;0.60;;;0.40;;
11082;SDS011;5595;50.186;8.468;2022-10-16T01:32:08;0.43;;;0.43;;
11082;SDS011;5595;50.186;8.468;2022-10-16T01:34:42;0.50;;;0.50;;
11082;SDS011;5595;50.186;8.468;2022-10-16T01:37:15;0.47;;;0.47;;
11082;SDS011;5595;50.186;8.468;2022-10-16T01:39:46;0.35;;;0.30;;
11082;SDS011;5595;50.186;8.468;2022-10-16T01:42:18;0.85;;;0.68;;
11082;SDS011;5595;50.186;8.468;2022-10-16T01:44:49;0.80;;;0.68;;
11082;SDS011;5595;50.186;8.468;2022-10-16T01:47:17;0.57;;;0.57;;
11082;SDS011;5595;50.186;8.468;2022-10-16T01:49:48;0.80;;;0.80;;
11082;SDS011;5595;50.186;8.468;2022-10-16T01:52:17;0.98;;;0.68;;
11082;SDS011;5595;50.186;8.468;2022-10-16T01:54:48;0.75;;;0.40;;
11082;SDS011;5595;50.186;8.468;2022-10-16T01:57:19;0.68;;;0.68;;
11082;SDS011;5595;50.186;8.468;2022-10-16T01:59:48;0.40;;;0.40;;
11082;SDS011;5595;50.186;8.468;2022-10-16T02:02:20;0.73;;;0.70;;
11082;SDS011;5595;50.186;8.468;2022-10-16T02:04:53;0.68;;;0.50;;
11082;SDS011;5595;50.186;8.468;2022-10-16T02:07:24;0.50;;;0.50;;
11082;SDS011;5595;50.186;8.468;2022-10-16T02:09:51;0.50;;;0.50;;
11082;SDS011;5595;50.186;8.468;2022-10-16T02:12:21;0.60;;;0.40;;
11082;SDS011;5595;50.186;8.468;2022-10-16T02:14:52;0.63;;;0.63;;
11082;SDS011;5595;50.186;8.468;2022-10-16T02:17:20;0.63;;;0.50;;
11082;SDS011;5595;50.186;8.468;2022-10-16T02:19:47;0.90;;;0.68;;
11082;SDS011;5595;50.186;8.468;2022-10-16T02:22:18;0.40;;;0.40;;
11082;SDS011;5595;50.186;8.468;2022-10-16T02:24:51;1.10;;;0.75;;
11082;SDS011;5595;50.186;8.468;2022-10-16T02:27:25;0.88;;;0.77;;
11082;SDS011;5595;50.186;8.468;2022-10-16T02:29:58;0.60;;;0.60;;
11082;SDS011;5595;50.186;8.468;2022-10-16T02:32:32;0.52;;;0.50;;
11082;SDS011;5595;50.186;8.468;2022-10-16T02:35:00;0.68;;;0.57;;
11082;SDS011;5595;50.186;8.468;2022-10-16T02:37:28;0.57;;;0.57;;
11082;SDS011;5595;50.186;8.468;2022-10-16T02:39:57;1.15;;;0.55;;
11082;SDS011;5595;50.186;8.468;2022-10-16T02:42:28;0.88;;;0.63;;
11082;SDS011;5595;50.186;8.468;2022-10-16T02:44:59;0.60;;;0.60;;
11082;SDS011;5595;50.186;8.468;2022-10-16T02:47:26;0.65;;;0.52;;
11082;SDS011;5595;50.186;8.468;2022-10-16T02:49:53;1.13;;;0.65;;
11082;SDS011;5595;50.186;8.468;2022-10-16T02:52:20;0.77;;;0.50;;
11082;SDS011;5595;50.186;8.468;2022-10-16T02:54:47;0.95;;;0.70;;
11082;SDS011;5595;50.186;8.468;2022-10-16T02:57:14;1.13;;;0.70;;
11082;SDS011;5595;50.186;8.468;2022-10-16T02:59:42;0.73;;;0.70;;
11082;SDS011;5595;50.186;8.468;2022-10-16T03:02:09;1.15;;;0.70;;
11082;SDS011;5595;50.186;8.468;2022-10-16T03:04:36;0.98;;;0.73;;
11082;SDS011;5595;50.186;8.468;2022-10-16T03:07:03;0.50;;;0.50;;
11082;SDS011;5595;50.186;8.468;2022-10-16T03:09:30;0.60;;;0.50;;
11082;SDS011;5595;50.186;8.468;2022-10-16T03:11:57;0.75;;;0.70;;
11082;SDS011;5595;50.186;8.468;2022-10-16T03:14:24;0.68;;;0.68;;
11082;SDS011;5595;50.186;8.468;2022-10-16T03:16:52;0.75;;;0.75;;
11082;SDS011;5595;50.186;8.468;2022-10-16T03:19:19;0.90;;;0.70;;
11082;SDS011;5595;50.186;8.468;2022-10-16T03:21:46;0.45;;;0.40;;
11082;SDS011;5595;50.186;8.468;2022-10-16T03:24:13;0.22;;;0.22;;
11082;SDS011;5595;50.186;8.468;2022-10-16T03:26:39;0.28;;;0.28;;
11082;SDS011;5595;50.186;8.468;2022-10-16T03:29:06;0.77;;;0.50;;
11082;SDS011;5595;50.186;8.468;2022-10-16T03:31:33;1.15;;;0.90;;
11082;SDS011;5595;50.186;8.468;2022-10-16T03:34:02;0.45;;;0.45;;
11082;SDS011;5595;50.186;8.468;2022-10-16T03:36:28;0.38;;;0.38;;
11082;SDS011;5595;50.186;8.468;2022-10-16T03:38:56;0.43;;;0.43;;
11082;SDS011;5595;50.186;8.468;2022-10-16T03:41:23;0.40;;;0.40;;
11082;SDS011;5595;50.186;8.468;2022-10-16T03:43:49;0.47;;;0.32;;
11082;SDS011;5595;50.186;8.468;2022-10-16T03:46:16;0.90;;;0.55;;
11082;SDS011;5595;50.186;8.468;2022-10-16T03:48:43;0.50;;;0.40;;
11082;SDS011;5595;50.186;8.468;2022-10-16T03:51:11;0.50;;;0.50;;
11082;SDS011;5595;50.186;8.468;2022-10-16T03:53:38;0.50;;;0.40;;
11082;SDS011;5595;50.186;8.468;2022-10-16T03:56:05;0.15;;;0.10;;
11082;SDS011;5595;50.186;8.468;2022-10-16T03:58:32;0.40;;;0.40;;
11082;SDS011;5595;50.186;8.468;2022-10-16T04:00:59;0.20;;;0.20;;
11082;SDS011;5595;50.186;8.468;2022-10-16T04:03:26;0.30;;;0.30;;
11082;SDS011;5595;50.186;8.468;2022-10-16T04:05:53;0.32;;;0.32;;
11082;SDS011;5595;50.186;8.468;2022-10-16T04:08:21;0.40;;;0.40;;
11082;SDS011;5595;50.186;8.468;2022-10-16T04:10:48;0.35;;;0.35;;
11082;SDS011;5595;50.186;8.468;2022-10-16T04:13:15;0.35;;;0.35;;
11082;SDS011;5595;50.186;8.468;2022-10-16T04:15:42;0.35;;;0.32;;
11082;SDS011;5595;50.186;8.468;2022-10-16T04:18:10;0.50;;;0.20;;
11082;SDS011;5595;50.186;8.468;2022-10-16T04:20:37;0.68;;;0.30;;
11082;SDS011;5595;50.186;8.468;2022-10-16T04:23:04;0.20;;;0.20;;
11082;SDS011;5595;50.186;8.468;2022-10-16T04:25:32;0.30;;;0.30;;
11082;SDS011;5595;50.186;8.468;2022-10-16T04:27:59;0.28;;;0.20;;
11082;SDS011;5595;50.186;8.468;2022-10-16T04:30:26;0.32;;;0.32;;
11082;SDS011;5595;50.186;8.468;2022-10-16T04:32:53;0.20;;;0.20;;
11082;SDS011;5595;50.186;8.468;2022-10-16T04:35:20;0.20;;;0.13;;
11082;SDS011;5595;50.186;8.468;2022-10-16T04:37:48;0.40;;;0.20;;
11082;SDS011;5595;50.186;8.468;2022-10-16T04:40:15;0.10;;;0.10;;
11082;SDS011;5595;50.186;8.468;2022-10-16T04:42:44;0.10;;;0.10;;
11082;SDS011;5595;50.186;8.468;2022-10-16T04:45:10;0.73;;;0.30;;
11082;SDS011;5595;50.186;8.468;2022-10-16T04:47:37;0.45;;;0.30;;
11082;SDS011;5595;50.186;8.468;2022-10-16T04:50:05;0.30;;;0.30;;
11082;SDS011;5595;50.186;8.468;2022-10-16T04:52:32;0.30;;;0.20;;
11082;SDS011;5595;50.186;8.468;2022-10-16T04:54:59;0.30;;;0.30;;
11082;SDS011;5595;50.186;8.468;2022-10-16T04:57:27;0.57;;;0.30;;
11082;SDS011;5595;50.186;8.468;2022-10-16T04:59:56;0.30;;;0.30;;
11082;SDS011;5595;50.186;8.468;2022-10-16T05:02:23;0.30;;;0.30;;
11082;SDS011;5595;50.186;8.468;2022-10-16T05:04:50;0.57;;;0.30;;
11082;SDS011;5595;50.186;8.468;2022-10-16T05:07:17;0.63;;;0.60;;
11082;SDS011;5595;50.186;8.468;2022-10-16T05:09:44;0.60;;;0.40;;
11082;SDS011;5595;50.186;8.468;2022-10-16T05:12:11;1.17;;;0.55;;
11082;SDS011;5595;50.186;8.468;2022-10-16T05:14:40;0.65;;;0.47;;
11082;SDS011;5595;50.186;8.468;2022-10-16T05:17:09;0.45;;;0.45;;
11082;SDS011;5595;50.186;8.468;2022-10-16T05:19:38;0.73;;;0.57;;
11082;SDS011;5595;50.186;8.468;2022-10-16T05:22:06;0.40;;;0.40;;
11082;SDS011;5595;50.186;8.468;2022-10-16T05:24:34;0.60;;;0.60;;
11082;SDS011;5595;50.186;8.468;2022-10-16T05:27:03;0.28;;;0.28;;
11082;SDS011;5595;50.186;8.468;2022-10-16T05:29:31;0.40;;;0.38;;
11082;SDS011;5595;50.186;8.468;2022-10-16T05:31:58;0.40;;;0.40;;
11082;SDS011;5595;50.186;8.468;2022-10-16T05:34:27;0.40;;;0.40;;
11082;SDS011;5595;50.186;8.468;2022-10-16T05:36:54;0.43;;;0.43;;
11082;SDS011;5595;50.186;8.468;2022-10-16T05:39:22;0.55;;;0.55;;
11082;SDS011;5595;50.186;8.468;2022-10-16T05:41:52;0.50;;;0.45;;
11082;SDS011;5595;50.186;8.468;2022-10-16T05:44:19;0.40;;;0.40;;
11082;SDS011;5595;50.186;8.468;2022-10-16T05:46:49;0.45;;;0.45;;
11082;SDS011;5595;50.186;8.468;2022-10-16T05:49:17;0.52;;;0.40;;
11082;SDS011;5595;50.186;8.468;2022-10-16T05:51:49;0.45;;;0.43;;
11082;SDS011;5595;50.186;8.468;2022-10-16T05:54:16;0.60;;;0.60;;
11082;SDS011;5595;50.186;8.468;2022-10-16T05:56:49;0.70;;;0.60;;
11082;SDS011;5595;50.186;8.468;2022-10-16T05:59:18;0.43;;;0.38;;
11082;SDS011;5595;50.186;8.468;2022-10-16T06:01:46;0.52;;;0.50;;
11082;SDS011;5595;50.186;8.468;2022-10-16T06:04:14;0.40;;;0.40;;
11082;SDS011;5595;50.186;8.468;2022-10-16T06:06:42;0.47;;;0.40;;
11082;SDS011;5595;50.186;8.468;2022-10-16T06:09:10;0.50;;;0.50;;
11082;SDS011;5595;50.186;8.468;2022-10-16T06:11:37;0.38;;;0.35;;
11082;SDS011;5595;50.186;8.468;2022-10-16T06:14:04;0.65;;;0.45;;
11082;SDS011;5595;50.186;8.468;2022-10-16T06:16:32;0.30;;;0.30;;
11082;SDS011;5595;50.186;8.468;2022-10-16T06:19:23;0.30;;;0.30;;
11082;SDS011;5595;50.186;8.468;2022-10-16T06:22:01;0.38;;;0.30;;
11082;SDS011;5595;50.186;8.468;2022-10-16T06:24:30;0.45;;;0.45;;
11082;SDS011;5595;50.186;8.468;2022-10-16T06:26:57;0.22;;;0.20;;
11082;SDS011;5595;50.186;8.468;2022-10-16T06:29:24;0.20;;;0.20;;
11082;SDS011;5595;50.186;8.468;2022-10-16T06:31:51;0.35;;;0.30;;
11082;SDS011;5595;50.186;8.468;2022-10-16T06:34:18;0.20;;;0.20;;
11082;SDS011;5595;50.186;8.468;2022-10-16T06:36:45;0.20;;;0.20;;
11082;SDS011;5595;50.186;8.468;2022-10-16T06:39:12;0.50;;;0.30;;
11082;SDS011;5595;50.186;8.468;2022-10-16T06:41:40;0.20;;;0.20;;
11082;SDS011;5595;50.186;8.468;2022-10-16T06:44:07;0.20;;;0.20;;
11082;SDS011;5595;50.186;8.468;2022-10-16T06:46:35;0.17;;;0.17;;
11082;SDS011;5595;50.186;8.468;2022-10-16T06:49:02;0.25;;;0.25;;
11082;SDS011;5595;50.186;8.468;2022-10-16T06:51:29;0.22;;;0.20;;
11082;SDS011;5595;50.186;8.468;2022-10-16T06:53:57;0.30;;;0.30;;
11082;SDS011;5595;50.186;8.468;2022-10-16T06:56:24;0.20;;;0.20;;
11082;SDS011;5595;50.186;8.468;2022-10-16T06:59:01;0.30;;;0.30;;
11082;SDS011;5595;50.186;8.468;2022-10-16T07:01:28;0.22;;;0.20;;
11082;SDS011;5595;50.186;8.468;2022-10-16T07:03:56;1.27;;;0.32;;
11082;SDS011;5595;50.186;8.468;2022-10-16T07:06:24;0.28;;;0.28;;
11082;SDS011;5595;50.186;8.468;2022-10-16T07:08:52;0.20;;;0.20;;
11082;SDS011;5595;50.186;8.468;2022-10-16T07:11:20;0.10;;;0.10;;
11082;SDS011;5595;50.186;8.468;2022-10-16T07:13:49;0.20;;;0.20;;
11082;SDS011;5595;50.186;8.468;2022-10-16T07:16:22;0.30;;;0.30;;
11082;SDS011;5595;50.186;8.468;2022-10-16T07:18:50;0.20;;;0.20;;
11082;SDS011;5595;50.186;8.468;2022-10-16T07:21:22;0.32;;;0.32;;
11082;SDS011;5595;50.186;8.468;2022-10-16T07:23:50;0.32;;;0.20;;
11082;SDS011;5595;50.186;8.468;2022-10-16T07:26:18;0.20;;;0.20;;
11082;SDS011;5595;50.186;8.468;2022-10-16T07:28:46;0.30;;;0.30;;
11082;SDS011;5595;50.186;8.468;2022-10-16T07:31:13;0.30;;;0.28;;
11082;SDS011;5595;50.186;8.468;2022-10-16T07:33:42;0.40;;;0.13;;
11082;SDS011;5595;50.186;8.468;2022-10-16T07:36:10;0.47;;;0.20;;
11082;SDS011;5595;50.186;8.468;2022-10-16T07:38:38;0.10;;;0.10;;
11082;SDS011;5595;50.186;8.468;2022-10-16T07:41:05;0.10;;;0.10;;
11082;SDS011;5595;50.186;8.468;2022-10-16T07:43:33;0.20;;;0.20;;
11082;SDS011;5595;50.186;8.468;2022-10-16T07:46:01;0.20;;;0.20;;
11082;SDS011;5595;50.186;8.468;2022-10-16T07:48:29;0.10;;;0.10;;
11082;SDS011;5595;50.186;8.468;2022-10-16T07:50:59;0.20;;;0.20;;
11082;SDS011;5595;50.186;8.468;2022-10-16T07:53:27;0.30;;;0.30;;
11082;SDS011;5595;50.186;8.468;2022-10-16T07:55:59;0.10;;;0.10;;
11082;SDS011;5595;50.186;8.468;2022-10-16T07:58:26;0.10;;;0.10;;
11082;SDS011;5595;50.186;8.468;2022-10-16T08:00:54;0.20;;;0.20;;
11082;SDS011;5595;50.186;8.468;2022-10-16T08:03:22;0.65;;;0.30;;
11082;SDS011;5595;50.186;8.468;2022-10-16T08:05:49;0.30;;;0.30;;
11082;SDS011;5595;50.186;8.468;2022-10-16T08:08:18;0.15;;;0.15;;
11082;SDS011;5595;50.186;8.468;2022-10-16T08:10:45;0.20;;;0.10;;
11082;SDS011;5595;50.186;8.468;2022-10-16T08:13:12;0.10;;;0.10;;
11082;SDS011;5595;50.186;8.468;2022-10-16T08:15:40;0.13;;;0.10;;
11082;SDS011;5595;50.186;8.468;2022-10-16T08:18:07;0.15;;;0.15;;
11082;SDS011;5595;50.186;8.468;2022-10-16T08:20:35;2.42;;;0.20;;
11082;SDS011;5595;50.186;8.468;2022-10-16T08:23:02;0.10;;;0.10;;
11082;SDS011;5595;50.186;8.468;2022-10-16T08:25:31;0.20;;;0.20;;
11082;SDS011;5595;50.186;8.468;2022-10-16T08:28:00;0.10;;;0.10;;
11082;SDS011;5595;50.186;8.468;2022-10-16T08:30:30;0.20;;;0.20;;
11082;SDS011;5595;50.186;8.468;2022-10-16T08:32:57;0.30;;;0.30;;
11082;SDS011;5595;50.186;8.468;2022-10-16T08:35:24;0.38;;;0.20;;
11082;SDS011;5595;50.186;8.468;2022-10-16T08:37:51;0.30;;;0.30;;
11082;SDS011;5595;50.186;8.468;2022-10-16T08:40:19;0.25;;;0.25;;
11082;SDS011;5595;50.186;8.468;2022-10-16T08:42:55;0.30;;;0.30;;
11082;SDS011;5595;50.186;8.468;2022-10-16T08:45:40;0.20;;;0.20;;
11082;SDS011;5595;50.186;8.468;2022-10-16T08:48:17;0.57;;;0.40;;
11082;SDS011;5595;50.186;8.468;2022-10-16T08:50:49;0.30;;;0.30;;
11082;SDS011;5595;50.186;8.468;2022-10-16T08:53:20;0.20;;;0.20;;
11082;SDS011;5595;50.186;8.468;2022-10-16T08:55:53;0.93;;;0.35;;
11082;SDS011;5595;50.186;8.468;2022-10-16T08:58:22;0.30;;;0.30;;
11082;SDS011;5595;50.186;8.468;2022-10-16T09:00:53;0.40;;;0.40;;
11082;SDS011;5595;50.186;8.468;2022-10-16T09:03:29;0.50;;;0.28;;
11082;SDS011;5595;50.186;8.468;2022-10-16T09:06:10;0.28;;;0.25;;
11082;SDS011;5595;50.186;8.468;2022-10-16T09:08:58;0.40;;;0.40;;
11082;SDS011;5595;50.186;8.468;2022-10-16T09:11:40;0.30;;;0.30;;
11082;SDS011;5595;50.186;8.468;2022-10-16T09:14:33;0.32;;;0.32;;
11082;SDS011;5595;50.186;8.468;2022-10-16T09:17:10;0.20;;;0.20;;
11082;SDS011;5595;50.186;8.468;2022-10-16T09:19:51;0.25;;;0.25;;
11082;SDS011;5595;50.186;8.468;2022-10-16T09:22:27;0.50;;;0.22;;
11082;SDS011;5595;50.186;8.468;2022-10-16T09:24:55;0.30;;;0.30;;
11082;SDS011;5595;50.186;8.468;2022-10-16T09:27:26;1.55;;;0.30;;
11082;SDS011;5595;50.186;8.468;2022-10-16T09:29:55;0.40;;;0.40;;
11082;SDS011;5595;50.186;8.468;2022-10-16T09:32:22;0.30;;;0.30;;
11082;SDS011;5595;50.186;8.468;2022-10-16T09:34:50;0.50;;;0.50;;
11082;SDS011;5595;50.186;8.468;2022-10-16T09:37:21;0.57;;;0.30;;
11082;SDS011;5595;50.186;8.468;2022-10-16T09:39:51;0.40;;;0.38;;
11082;SDS011;5595;50.186;8.468;2022-10-16T09:42:21;0.95;;;0.38;;
11082;SDS011;5595;50.186;8.468;2022-10-16T09:44:51;0.47;;;0.35;;
11082;SDS011;5595;50.186;8.468;2022-10-16T09:47:23;0.30;;;0.30;;
11082;SDS011;5595;50.186;8.468;2022-10-16T09:49:53;0.40;;;0.30;;
11082;SDS011;5595;50.186;8.468;2022-10-16T09:52:22;0.65;;;0.30;;
11082;SDS011;5595;50.186;8.468;2022-10-16T09:54:50;0.52;;;0.20;;
11082;SDS011;5595;50.186;8.468;2022-10-16T09:57:21;0.35;;;0.28;;
11082;SDS011;5595;50.186;8.468;2022-10-16T09:59:50;0.22;;;0.22;;
11082;SDS011;5595;50.186;8.468;2022-10-16T10:02:19;0.20;;;0.20;;
11082;SDS011;5595;50.186;8.468;2022-10-16T10:04:54;0.60;;;0.57;;
11082;SDS011;5595;50.186;8.468;2022-10-16T10:07:24;0.30;;;0.30;;
11082;SDS011;5595;50.186;8.468;2022-10-16T10:09:53;0.20;;;0.20;;
11082;SDS011;5595;50.186;8.468;2022-10-16T10:12:24;0.40;;;0.30;;
11082;SDS011;5595;50.186;8.468;2022-10-16T10:14:54;0.22;;;0.22;;
11082;SDS011;5595;50.186;8.468;2022-10-16T10:17:25;0.35;;;0.30;;
11082;SDS011;5595;50.186;8.468;2022-10-16T10:19:53;0.40;;;0.30;;
11082;SDS011;5595;50.186;8.468;2022-10-16T10:22:27;0.25;;;0.25;;
11082;SDS011;5595;50.186;8.468;2022-10-16T10:24:57;0.30;;;0.30;;
11082;SDS011;5595;50.186;8.468;2022-10-16T10:27:32;0.28;;;0.28;;
11082;SDS011;5595;50.186;8.468;2022-10-16T10:30:06;0.40;;;0.30;;
11082;SDS011;5595;50.186;8.468;2022-10-16T10:32:47;0.20;;;0.20;;
11082;SDS011;5595;50.186;8.468;2022-10-16T10:35:22;0.20;;;0.20;;
11082;SDS011;5595;50.186;8.468;2022-10-16T10:37:57;0.55;;;0.40;;
11082;SDS011;5595;50.186;8.468;2022-10-16T10:40:39;0.15;;;0.15;;
11082;SDS011;5595;50.186;8.468;2022-10-16T10:43:21;0.30;;;0.30;;
11082;SDS011;5595;50.186;8.468;2022-10-16T10:46:01;0.30;;;0.30;;
11082;SDS011;5595;50.186;8.468;2022-10-16T10:48:44;0.50;;;0.40;;
11082;SDS011;5595;50.186;8.468;2022-10-16T10:51:30;0.60;;;0.32;;
11082;SDS011;5595;50.186;8.468;2022-10-16T10:54:09;0.30;;;0.30;;
11082;SDS011;5595;50.186;8.468;2022-10-16T10:56:44;0.50;;;0.28;;
11082;SDS011;5595;50.186;8.468;2022-10-16T10:59:29;0.32;;;0.30;;
11082;SDS011;5595;50.186;8.468;2022-10-16T11:02:10;0.40;;;0.30;;
11082;SDS011;5595;50.186;8.468;2022-10-16T11:07:57;0.32;;;0.20;;
11082;SDS011;5595;50.186;8.468;2022-10-16T11:10:29;0.17;;;0.17;;
11082;SDS011;5595;50.186;8.468;2022-10-16T11:13:04;0.20;;;0.20;;
11082;SDS011;5595;50.186;8.468;2022-10-16T11:15:40;0.25;;;0.25;;
11082;SDS011;5595;50.186;8.468;2022-10-16T11:18:11;0.20;;;0.20;;
11082;SDS011;5595;50.186;8.468;2022-10-16T11:20:44;0.38;;;0.30;;
11082;SDS011;5595;50.186;8.468;2022-10-16T11:23:18;0.20;;;0.20;;
11082;SDS011;5595;50.186;8.468;2022-10-16T11:25:51;0.40;;;0.20;;
11082;SDS011;5595;50.186;8.468;2022-10-16T11:28:20;0.20;;;0.20;;
11082;SDS011;5595;50.186;8.468;2022-10-16T11:30:54;0.20;;;0.20;;
11082;SDS011;5595;50.186;8.468;2022-10-16T11:33:27;0.20;;;0.20;;
11082;SDS011;5595;50.186;8.468;2022-10-16T11:36:00;0.57;;;0.30;;
11082;SDS011;5595;50.186;8.468;2022-10-16T11:38:32;0.30;;;0.30;;
11082;SDS011;5595;50.186;8.468;2022-10-16T11:41:09;0.30;;;0.30;;
11082;SDS011;5595;50.186;8.468;2022-10-16T11:43:45;0.52;;;0.32;;
11082;SDS011;5595;50.186;8.468;2022-10-16T11:46:20;0.38;;;0.30;;
11082;SDS011;5595;50.186;8.468;2022-10-16T11:48:50;0.50;;;0.30;;
11082;SDS011;5595;50.186;8.468;2022-10-16T11:51:25;0.30;;;0.20;;
11082;SDS011;5595;50.186;8.468;2022-10-16T11:53:59;0.30;;;0.30;;
11082;SDS011;5595;50.186;8.468;2022-10-16T11:56:32;0.40;;;0.40;;
11082;SDS011;5595;50.186;8.468;2022-10-16T11:59:05;0.20;;;0.20;;
11082;SDS011;5595;50.186;8.468;2022-10-16T12:01:38;0.95;;;0.70;;
11082;SDS011;5595;50.186;8.468;2022-10-16T12:04:14;0.30;;;0.30;;
11082;SDS011;5595;50.186;8.468;2022-10-16T12:06:48;0.20;;;0.20;;
11082;SDS011;5595;50.186;8.468;2022-10-16T12:09:24;0.82;;;0.50;;
11082;SDS011;5595;50.186;8.468;2022-10-16T12:11:53;0.32;;;0.32;;
11082;SDS011;5595;50.186;8.468;2022-10-16T12:14:22;1.45;;;0.30;;
11082;SDS011;5595;50.186;8.468;2022-10-16T12:17:01;0.50;;;0.40;;
11082;SDS011;5595;50.186;8.468;2022-10-16T12:19:31;0.60;;;0.28;;
11082;SDS011;5595;50.186;8.468;2022-10-16T12:22:00;0.30;;;0.30;;
11082;SDS011;5595;50.186;8.468;2022-10-16T12:24:32;0.38;;;0.38;;
11082;SDS011;5595;50.186;8.468;2022-10-16T12:27:01;0.30;;;0.30;;
11082;SDS011;5595;50.186;8.468;2022-10-16T12:29:32;0.30;;;0.30;;
11082;SDS011;5595;50.186;8.468;2022-10-16T12:32:02;0.30;;;0.30;;
11082;SDS011;5595;50.186;8.468;2022-10-16T12:34:33;0.43;;;0.40;;
11082;SDS011;5595;50.186;8.468;2022-10-16T12:37:09;0.35;;;0.30;;
11082;SDS011;5595;50.186;8.468;2022-10-16T12:39:48;0.20;;;0.20;;
11082;SDS011;5595;50.186;8.468;2022-10-16T12:42:21;0.40;;;0.30;;
11082;SDS011;5595;50.186;8.468;2022-10-16T12:45:00;0.15;;;0.15;;
11082;SDS011;5595;50.186;8.468;2022-10-16T12:47:47;0.20;;;0.20;;
11082;SDS011;5595;50.186;8.468;2022-10-16T12:50:23;1.15;;;0.68;;
11082;SDS011;5595;50.186;8.468;2022-10-16T12:52:55;1.88;;;1.00;;
11082;SDS011;5595;50.186;8.468;2022-10-16T12:55:24;0.30;;;0.30;;
11082;SDS011;5595;50.186;8.468;2022-10-16T13:00:43;0.10;;;0.10;;
11082;SDS011;5595;50.186;8.468;2022-10-16T13:03:28;0.20;;;0.20;;
11082;SDS011;5595;50.186;8.468;2022-10-16T13:06:16;0.20;;;0.20;;
11082;SDS011;5595;50.186;8.468;2022-10-16T13:08:55;0.22;;;0.15;;
11082;SDS011;5595;50.186;8.468;2022-10-16T13:11:51;0.25;;;0.20;;
11082;SDS011;5595;50.186;8.468;2022-10-16T13:14:55;0.20;;;0.20;;
11082;SDS011;5595;50.186;8.468;2022-10-16T13:17:42;0.10;;;0.10;;
11082;SDS011;5595;50.186;8.468;2022-10-16T13:20:25;0.20;;;0.20;;
11082;SDS011;5595;50.186;8.468;2022-10-16T13:23:03;0.20;;;0.20;;
11082;SDS011;5595;50.186;8.468;2022-10-16T13:25:43;0.30;;;0.30;;
11082;SDS011;5595;50.186;8.468;2022-10-16T13:28:26;0.40;;;0.20;;
11082;SDS011;5595;50.186;8.468;2022-10-16T13:30:55;0.43;;;0.30;;
11082;SDS011;5595;50.186;8.468;2022-10-16T13:33:25;0.13;;;0.10;;
11082;SDS011;5595;50.186;8.468;2022-10-16T13:35:57;0.15;;;0.15;;
11082;SDS011;5595;50.186;8.468;2022-10-16T13:38:25;0.10;;;0.10;;
11082;SDS011;5595;50.186;8.468;2022-10-16T13:40:57;0.22;;;0.15;;
11082;SDS011;5595;50.186;8.468;2022-10-16T13:43:27;0.10;;;0.10;;
11082;SDS011;5595;50.186;8.468;2022-10-16T13:45:59;0.20;;;0.20;;
11082;SDS011;5595;50.186;8.468;2022-10-16T13:48:28;0.30;;;0.30;;
11082;SDS011;5595;50.186;8.468;2022-10-16T13:51:00;0.30;;;0.10;;
11082;SDS011;5595;50.186;8.468;2022-10-16T13:53:34;0.20;;;0.20;;
11082;SDS011;5595;50.186;8.468;2022-10-16T13:56:03;0.28;;;0.20;;
11082;SDS011;5595;50.186;8.468;2022-10-16T13:58:33;0.20;;;0.20;;
11082;SDS011;5595;50.186;8.468;2022-10-16T14:01:01;0.10;;;0.10;;
11082;SDS011;5595;50.186;8.468;2022-10-16T14:03:30;0.20;;;0.20;;
11082;SDS011;5595;50.186;8.468;2022-10-16T14:06:01;0.10;;;0.10;;
11082;SDS011;5595;50.186;8.468;2022-10-16T14:08:29;0.15;;;0.15;;
11082;SDS011;5595;50.186;8.468;2022-10-16T14:10:58;0.25;;;0.20;;
11082;SDS011;5595;50.186;8.468;2022-10-16T14:13:29;0.10;;;0.10;;
11082;SDS011;5595;50.186;8.468;2022-10-16T14:16:00;0.22;;;0.10;;
11082;SDS011;5595;50.186;8.468;2022-10-16T14:18:33;0.10;;;0.10;;
11082;SDS011;5595;50.186;8.468;2022-10-16T14:21:04;0.20;;;0.20;;
11082;SDS011;5595;50.186;8.468;2022-10-16T14:23:34;0.20;;;0.20;;
11082;SDS011;5595;50.186;8.468;2022-10-16T14:26:13;0.10;;;0.10;;
11082;SDS011;5595;50.186;8.468;2022-10-16T14:28:44;0.20;;;0.20;;
11082;SDS011;5595;50.186;8.468;2022-10-16T14:31:33;0.10;;;0.10;;
11082;SDS011;5595;50.186;8.468;2022-10-16T14:34:22;0.10;;;0.10;;
11082;SDS011;5595;50.186;8.468;2022-10-16T14:36:59;0.20;;;0.20;;
11082;SDS011;5595;50.186;8.468;2022-10-16T14:39:36;0.20;;;0.20;;
11082;SDS011;5595;50.186;8.468;2022-10-16T14:42:04;0.13;;;0.13;;
11082;SDS011;5595;50.186;8.468;2022-10-16T14:44:40;0.10;;;0.10;;
11082;SDS011;5595;50.186;8.468;2022-10-16T14:47:12;0.20;;;0.20;;
11082;SDS011;5595;50.186;8.468;2022-10-16T14:49:47;0.10;;;0.10;;
11082;SDS011;5595;50.186;8.468;2022-10-16T14:52:14;0.10;;;0.10;;
11082;SDS011;5595;50.186;8.468;2022-10-16T14:54:42;0.10;;;0.10;;
11082;SDS011;5595;50.186;8.468;2022-10-16T14:57:15;0.10;;;0.10;;
11082;SDS011;5595;50.186;8.468;2022-10-16T14:59:45;0.10;;;0.10;;
11082;SDS011;5595;50.186;8.468;2022-10-16T15:02:18;0.10;;;0.00;;
11082;SDS011;5595;50.186;8.468;2022-10-16T15:04:49;0.10;;;0.10;;
11082;SDS011;5595;50.186;8.468;2022-10-16T15:07:16;0.10;;;0.10;;
11082;SDS011;5595;50.186;8.468;2022-10-16T15:09:43;0.45;;;0.25;;
11082;SDS011;5595;50.186;8.468;2022-10-16T15:12:11;0.20;;;0.20;;
11082;SDS011;5595;50.186;8.468;2022-10-16T15:14:39;0.15;;;0.15;;
11082;SDS011;5595;50.186;8.468;2022-10-16T15:17:07;0.35;;;0.10;;
11082;SDS011;5595;50.186;8.468;2022-10-16T15:19:36;0.10;;;0.10;;
11082;SDS011;5595;50.186;8.468;2022-10-16T15:22:03;0.20;;;0.20;;
11082;SDS011;5595;50.186;8.468;2022-10-16T15:24:31;0.10;;;0.10;;
11082;SDS011;5595;50.186;8.468;2022-10-16T15:26:58;0.30;;;0.20;;
11082;SDS011;5595;50.186;8.468;2022-10-16T15:29:25;0.10;;;0.10;;